sensor_id;sensor_type;location;lat;lon;timestamp;P1;durP1;ratioP1;P2;durP2;ratioP2
63007;SDS011;49266;47.552;19.078;2022-11-20T00:03:17;35.13;;;17.60;;
63007;SDS011;49266;47.552;19.078;2022-11-20T00:07:57;35.35;;;17.77;;
63007;SDS011;49266;47.552;19.078;2022-11-20T00:12:37;37.85;;;17.88;;
63007;SDS011;49266;47.552;19.078;2022-11-20T00:17:17;33.53;;;15.88;;
63007;SDS011;49266;47.552;19.078;2022-11-20T00:21:57;35.47;;;16.83;;
63007;SDS011;49266;47.552;19.078;2022-11-20T00:26:38;32.55;;;15.70;;
63007;SDS011;49266;47.552;19.078;2022-11-20T00:31:18;33.88;;;16.08;;
63007;SDS011;49266;47.552;19.078;2022-11-20T00:36:02;36.35;;;16.38;;
63007;SDS011;49266;47.552;19.078;2022-11-20T00:40:43;30.00;;;14.68;;
63007;SDS011;49266;47.552;19.078;2022-11-20T00:45:23;34.85;;;17.15;;
63007;SDS011;49266;47.552;19.078;2022-11-20T00:50:04;35.97;;;16.95;;
63007;SDS011;49266;47.552;19.078;2022-11-20T00:54:44;37.42;;;18.20;;
63007;SDS011;49266;47.552;19.078;2022-11-20T00:59:24;42.50;;;18.52;;
63007;SDS011;49266;47.552;19.078;2022-11-20T01:04:04;43.50;;;19.70;;
63007;SDS011;49266;47.552;19.078;2022-11-20T01:08:45;41.63;;;19.08;;
63007;SDS011;49266;47.552;19.078;2022-11-20T01:13:25;42.42;;;19.55;;
63007;SDS011;49266;47.552;19.078;2022-11-20T01:18:17;44.10;;;19.55;;
63007;SDS011;49266;47.552;19.078;2022-11-20T01:22:58;46.17;;;20.02;;
63007;SDS011;49266;47.552;19.078;2022-11-20T01:27:38;47.20;;;19.75;;
63007;SDS011;49266;47.552;19.078;2022-11-20T01:32:18;43.38;;;19.00;;
63007;SDS011;49266;47.552;19.078;2022-11-20T01:36:58;43.47;;;19.20;;
63007;SDS011;49266;47.552;19.078;2022-11-20T01:41:38;46.33;;;20.50;;
63007;SDS011;49266;47.552;19.078;2022-11-20T01:46:38;48.80;;;20.77;;
63007;SDS011;49266;47.552;19.078;2022-11-20T01:56:04;50.75;;;22.60;;
63007;SDS011;49266;47.552;19.078;2022-11-20T02:00:45;53.15;;;22.92;;
63007;SDS011;49266;47.552;19.078;2022-11-20T02:05:31;49.53;;;21.98;;
63007;SDS011;49266;47.552;19.078;2022-11-20T02:10:12;42.92;;;19.90;;
63007;SDS011;49266;47.552;19.078;2022-11-20T02:14:53;46.97;;;21.20;;
63007;SDS011;49266;47.552;19.078;2022-11-20T02:19:33;47.95;;;20.98;;
63007;SDS011;49266;47.552;19.078;2022-11-20T02:28:54;46.20;;;20.67;;
63007;SDS011;49266;47.552;19.078;2022-11-20T02:33:34;48.05;;;20.83;;
63007;SDS011;49266;47.552;19.078;2022-11-20T02:38:14;47.50;;;21.77;;
63007;SDS011;49266;47.552;19.078;2022-11-20T02:42:55;46.13;;;20.02;;
63007;SDS011;49266;47.552;19.078;2022-11-20T02:47:36;49.42;;;21.25;;
63007;SDS011;49266;47.552;19.078;2022-11-20T02:52:16;46.10;;;21.02;;
63007;SDS011;49266;47.552;19.078;2022-11-20T02:56:56;45.33;;;20.27;;
63007;SDS011;49266;47.552;19.078;2022-11-20T03:01:36;44.53;;;20.98;;
63007;SDS011;49266;47.552;19.078;2022-11-20T03:06:16;42.15;;;19.67;;
63007;SDS011;49266;47.552;19.078;2022-11-20T03:10:57;44.05;;;21.13;;
63007;SDS011;49266;47.552;19.078;2022-11-20T03:15:41;42.55;;;19.80;;
63007;SDS011;49266;47.552;19.078;2022-11-20T03:20:21;44.00;;;20.73;;
63007;SDS011;49266;47.552;19.078;2022-11-20T03:25:02;46.40;;;21.80;;
63007;SDS011;49266;47.552;19.078;2022-11-20T03:29:42;40.80;;;19.60;;
63007;SDS011;49266;47.552;19.078;2022-11-20T03:34:22;42.42;;;20.15;;
63007;SDS011;49266;47.552;19.078;2022-11-20T03:39:03;41.67;;;19.83;;
63007;SDS011;49266;47.552;19.078;2022-11-20T03:43:47;43.25;;;20.45;;
63007;SDS011;49266;47.552;19.078;2022-11-20T03:48:28;42.58;;;19.85;;
63007;SDS011;49266;47.552;19.078;2022-11-20T03:53:08;45.83;;;21.95;;
63007;SDS011;49266;47.552;19.078;2022-11-20T03:57:48;43.03;;;20.67;;
63007;SDS011;49266;47.552;19.078;2022-11-20T04:02:28;40.92;;;20.00;;
63007;SDS011;49266;47.552;19.078;2022-11-20T04:07:09;43.38;;;21.15;;
63007;SDS011;49266;47.552;19.078;2022-11-20T04:11:49;41.83;;;20.58;;
63007;SDS011;49266;47.552;19.078;2022-11-20T04:16:30;43.45;;;20.60;;
63007;SDS011;49266;47.552;19.078;2022-11-20T04:21:10;43.70;;;21.48;;
63007;SDS011;49266;47.552;19.078;2022-11-20T04:25:51;41.62;;;21.42;;
63007;SDS011;49266;47.552;19.078;2022-11-20T04:30:31;39.83;;;19.92;;
63007;SDS011;49266;47.552;19.078;2022-11-20T04:35:11;41.92;;;19.45;;
63007;SDS011;49266;47.552;19.078;2022-11-20T04:39:51;39.72;;;19.27;;
63007;SDS011;49266;47.552;19.078;2022-11-20T04:44:31;45.05;;;21.02;;
63007;SDS011;49266;47.552;19.078;2022-11-20T04:49:12;42.92;;;20.25;;
63007;SDS011;49266;47.552;19.078;2022-11-20T04:53:52;45.13;;;21.27;;
63007;SDS011;49266;47.552;19.078;2022-11-20T04:58:33;45.80;;;21.48;;
63007;SDS011;49266;47.552;19.078;2022-11-20T05:03:13;44.50;;;20.25;;
63007;SDS011;49266;47.552;19.078;2022-11-20T05:07:55;47.05;;;20.63;;
63007;SDS011;49266;47.552;19.078;2022-11-20T05:12:36;39.90;;;19.88;;
63007;SDS011;49266;47.552;19.078;2022-11-20T05:17:16;43.17;;;20.50;;
63007;SDS011;49266;47.552;19.078;2022-11-20T05:21:56;40.00;;;19.95;;
63007;SDS011;49266;47.552;19.078;2022-11-20T05:26:36;44.10;;;20.45;;
63007;SDS011;49266;47.552;19.078;2022-11-20T05:31:18;45.97;;;21.25;;
63007;SDS011;49266;47.552;19.078;2022-11-20T05:35:58;46.05;;;21.17;;
63007;SDS011;49266;47.552;19.078;2022-11-20T05:40:39;43.42;;;20.80;;
63007;SDS011;49266;47.552;19.078;2022-11-20T05:45:19;43.95;;;20.83;;
63007;SDS011;49266;47.552;19.078;2022-11-20T05:49:59;41.50;;;19.77;;
63007;SDS011;49266;47.552;19.078;2022-11-20T05:54:39;39.42;;;19.90;;
63007;SDS011;49266;47.552;19.078;2022-11-20T05:59:19;41.78;;;19.75;;
63007;SDS011;49266;47.552;19.078;2022-11-20T06:04:00;42.85;;;19.80;;
63007;SDS011;49266;47.552;19.078;2022-11-20T06:08:40;39.00;;;17.58;;
63007;SDS011;49266;47.552;19.078;2022-11-20T06:13:20;39.08;;;18.52;;
63007;SDS011;49266;47.552;19.078;2022-11-20T06:18:00;35.65;;;17.27;;
63007;SDS011;49266;47.552;19.078;2022-11-20T06:22:41;38.50;;;17.70;;
63007;SDS011;49266;47.552;19.078;2022-11-20T06:27:21;41.75;;;19.27;;
63007;SDS011;49266;47.552;19.078;2022-11-20T06:32:01;36.28;;;17.90;;
63007;SDS011;49266;47.552;19.078;2022-11-20T06:36:41;33.47;;;17.55;;
63007;SDS011;49266;47.552;19.078;2022-11-20T06:41:22;36.90;;;17.92;;
63007;SDS011;49266;47.552;19.078;2022-11-20T06:46:02;38.65;;;17.85;;
63007;SDS011;49266;47.552;19.078;2022-11-20T06:50:42;37.38;;;17.67;;
63007;SDS011;49266;47.552;19.078;2022-11-20T06:55:22;31.88;;;16.65;;
63007;SDS011;49266;47.552;19.078;2022-11-20T07:00:03;36.88;;;18.33;;
63007;SDS011;49266;47.552;19.078;2022-11-20T07:04:43;35.28;;;17.92;;
63007;SDS011;49266;47.552;19.078;2022-11-20T07:09:24;35.80;;;17.40;;
63007;SDS011;49266;47.552;19.078;2022-11-20T07:14:05;36.33;;;18.23;;
63007;SDS011;49266;47.552;19.078;2022-11-20T07:18:45;40.88;;;19.63;;
63007;SDS011;49266;47.552;19.078;2022-11-20T07:23:25;45.45;;;20.30;;
63007;SDS011;49266;47.552;19.078;2022-11-20T07:28:05;47.92;;;22.48;;
63007;SDS011;49266;47.552;19.078;2022-11-20T07:32:46;48.85;;;22.20;;
63007;SDS011;49266;47.552;19.078;2022-11-20T07:37:26;43.90;;;20.58;;
63007;SDS011;49266;47.552;19.078;2022-11-20T07:42:06;37.20;;;19.55;;
63007;SDS011;49266;47.552;19.078;2022-11-20T07:46:47;42.55;;;19.98;;
63007;SDS011;49266;47.552;19.078;2022-11-20T07:51:27;40.90;;;20.75;;
63007;SDS011;49266;47.552;19.078;2022-11-20T07:56:09;42.17;;;21.23;;
63007;SDS011;49266;47.552;19.078;2022-11-20T08:00:49;40.10;;;20.10;;
63007;SDS011;49266;47.552;19.078;2022-11-20T08:05:29;36.53;;;20.08;;
63007;SDS011;49266;47.552;19.078;2022-11-20T08:10:11;35.60;;;19.02;;
63007;SDS011;49266;47.552;19.078;2022-11-20T08:14:51;39.97;;;19.23;;
63007;SDS011;49266;47.552;19.078;2022-11-20T08:19:31;37.58;;;20.50;;
63007;SDS011;49266;47.552;19.078;2022-11-20T08:24:12;35.78;;;19.52;;
63007;SDS011;49266;47.552;19.078;2022-11-20T08:28:53;36.72;;;19.48;;
63007;SDS011;49266;47.552;19.078;2022-11-20T08:33:34;43.08;;;22.02;;
63007;SDS011;49266;47.552;19.078;2022-11-20T08:38:14;39.70;;;20.90;;
63007;SDS011;49266;47.552;19.078;2022-11-20T08:42:54;40.08;;;21.30;;
63007;SDS011;49266;47.552;19.078;2022-11-20T08:47:35;42.08;;;21.80;;
63007;SDS011;49266;47.552;19.078;2022-11-20T08:52:15;42.65;;;23.00;;
63007;SDS011;49266;47.552;19.078;2022-11-20T08:56:55;43.15;;;23.50;;
63007;SDS011;49266;47.552;19.078;2022-11-20T09:01:35;41.00;;;22.80;;
63007;SDS011;49266;47.552;19.078;2022-11-20T09:06:15;40.85;;;21.10;;
63007;SDS011;49266;47.552;19.078;2022-11-20T09:10:56;37.75;;;19.88;;
63007;SDS011;49266;47.552;19.078;2022-11-20T09:15:37;42.88;;;21.80;;
63007;SDS011;49266;47.552;19.078;2022-11-20T09:20:17;38.53;;;21.42;;
63007;SDS011;49266;47.552;19.078;2022-11-20T09:24:57;40.28;;;21.67;;
63007;SDS011;49266;47.552;19.078;2022-11-20T09:29:37;38.33;;;19.50;;
63007;SDS011;49266;47.552;19.078;2022-11-20T09:34:17;37.85;;;20.83;;
63007;SDS011;49266;47.552;19.078;2022-11-20T09:38:58;38.13;;;20.95;;
63007;SDS011;49266;47.552;19.078;2022-11-20T09:53:12;39.40;;;21.63;;
63007;SDS011;49266;47.552;19.078;2022-11-20T09:57:53;39.38;;;21.83;;
63007;SDS011;49266;47.552;19.078;2022-11-20T10:02:37;36.63;;;20.80;;
63007;SDS011;49266;47.552;19.078;2022-11-20T10:07:21;37.15;;;20.13;;
63007;SDS011;49266;47.552;19.078;2022-11-20T10:26:46;37.40;;;20.92;;
63007;SDS011;49266;47.552;19.078;2022-11-20T10:31:36;34.95;;;19.15;;
63007;SDS011;49266;47.552;19.078;2022-11-20T10:36:19;39.67;;;21.15;;
63007;SDS011;49266;47.552;19.078;2022-11-20T10:41:01;36.80;;;20.77;;
63007;SDS011;49266;47.552;19.078;2022-11-20T10:46:08;40.08;;;21.52;;
63007;SDS011;49266;47.552;19.078;2022-11-20T10:55:40;37.35;;;20.35;;
63007;SDS011;49266;47.552;19.078;2022-11-20T11:00:22;34.30;;;20.53;;
63007;SDS011;49266;47.552;19.078;2022-11-20T11:05:06;37.47;;;20.45;;
63007;SDS011;49266;47.552;19.078;2022-11-20T11:09:54;36.05;;;19.58;;
63007;SDS011;49266;47.552;19.078;2022-11-20T11:19:15;35.90;;;19.40;;
63007;SDS011;49266;47.552;19.078;2022-11-20T11:23:59;36.92;;;20.50;;
63007;SDS011;49266;47.552;19.078;2022-11-20T11:28:39;40.17;;;21.10;;
63007;SDS011;49266;47.552;19.078;2022-11-20T11:33:30;39.47;;;21.90;;
63007;SDS011;49266;47.552;19.078;2022-11-20T11:38:12;38.08;;;21.02;;
63007;SDS011;49266;47.552;19.078;2022-11-20T11:42:54;37.35;;;20.33;;
63007;SDS011;49266;47.552;19.078;2022-11-20T11:47:37;42.25;;;22.05;;
63007;SDS011;49266;47.552;19.078;2022-11-20T11:52:22;39.90;;;22.80;;
63007;SDS011;49266;47.552;19.078;2022-11-20T12:02:03;37.00;;;19.98;;
63007;SDS011;49266;47.552;19.078;2022-11-20T12:06:56;41.13;;;22.95;;
63007;SDS011;49266;47.552;19.078;2022-11-20T12:11:42;39.75;;;21.90;;
63007;SDS011;49266;47.552;19.078;2022-11-20T12:16:23;40.10;;;21.35;;
63007;SDS011;49266;47.552;19.078;2022-11-20T12:21:20;44.42;;;24.15;;
63007;SDS011;49266;47.552;19.078;2022-11-20T12:26:04;40.35;;;22.77;;
63007;SDS011;49266;47.552;19.078;2022-11-20T12:50:13;44.45;;;23.52;;
63007;SDS011;49266;47.552;19.078;2022-11-20T12:55:21;46.03;;;22.98;;
63007;SDS011;49266;47.552;19.078;2022-11-20T13:00:01;49.83;;;25.10;;
63007;SDS011;49266;47.552;19.078;2022-11-20T13:09:24;46.45;;;24.17;;
63007;SDS011;49266;47.552;19.078;2022-11-20T13:14:07;43.72;;;22.98;;
63007;SDS011;49266;47.552;19.078;2022-11-20T13:18:51;42.35;;;23.63;;
63007;SDS011;49266;47.552;19.078;2022-11-20T13:23:31;42.95;;;22.50;;
63007;SDS011;49266;47.552;19.078;2022-11-20T13:37:37;41.75;;;21.58;;
63007;SDS011;49266;47.552;19.078;2022-11-20T13:46:58;38.75;;;21.48;;
63007;SDS011;49266;47.552;19.078;2022-11-20T13:51:48;43.90;;;22.73;;
63007;SDS011;49266;47.552;19.078;2022-11-20T14:01:29;43.15;;;22.88;;
63007;SDS011;49266;47.552;19.078;2022-11-20T14:06:12;40.17;;;21.85;;
63007;SDS011;49266;47.552;19.078;2022-11-20T14:11:04;41.63;;;22.73;;
63007;SDS011;49266;47.552;19.078;2022-11-20T14:15:44;43.25;;;22.80;;
63007;SDS011;49266;47.552;19.078;2022-11-20T14:20:27;42.65;;;21.63;;
63007;SDS011;49266;47.552;19.078;2022-11-20T14:29:54;45.10;;;22.60;;
63007;SDS011;49266;47.552;19.078;2022-11-20T14:34:38;46.80;;;24.35;;
63007;SDS011;49266;47.552;19.078;2022-11-20T14:39:20;45.35;;;23.30;;
63007;SDS011;49266;47.552;19.078;2022-11-20T14:44:01;47.78;;;23.85;;
63007;SDS011;49266;47.552;19.078;2022-11-20T14:53:28;47.00;;;23.10;;
63007;SDS011;49266;47.552;19.078;2022-11-20T14:58:22;48.10;;;24.80;;
63007;SDS011;49266;47.552;19.078;2022-11-20T15:03:02;49.05;;;24.40;;
63007;SDS011;49266;47.552;19.078;2022-11-20T15:07:44;46.83;;;24.70;;
63007;SDS011;49266;47.552;19.078;2022-11-20T15:12:28;49.78;;;25.23;;
63007;SDS011;49266;47.552;19.078;2022-11-20T15:17:09;52.45;;;25.83;;
63007;SDS011;49266;47.552;19.078;2022-11-20T15:21:50;50.05;;;24.83;;
63007;SDS011;49266;47.552;19.078;2022-11-20T15:26:30;53.05;;;24.75;;
63007;SDS011;49266;47.552;19.078;2022-11-20T15:31:12;54.15;;;27.02;;
63007;SDS011;49266;47.552;19.078;2022-11-20T15:35:52;50.72;;;26.60;;
63007;SDS011;49266;47.552;19.078;2022-11-20T15:40:32;54.78;;;27.27;;
63007;SDS011;49266;47.552;19.078;2022-11-20T15:45:12;52.95;;;26.02;;
63007;SDS011;49266;47.552;19.078;2022-11-20T15:49:52;54.63;;;27.38;;
63007;SDS011;49266;47.552;19.078;2022-11-20T15:54:33;56.85;;;27.05;;
63007;SDS011;49266;47.552;19.078;2022-11-20T15:59:13;55.63;;;26.88;;
63007;SDS011;49266;47.552;19.078;2022-11-20T16:03:54;60.03;;;27.52;;
63007;SDS011;49266;47.552;19.078;2022-11-20T16:08:34;58.67;;;28.48;;
63007;SDS011;49266;47.552;19.078;2022-11-20T16:13:16;54.72;;;27.20;;
63007;SDS011;49266;47.552;19.078;2022-11-20T16:18:18;56.25;;;26.58;;
63007;SDS011;49266;47.552;19.078;2022-11-20T16:22:59;56.45;;;27.67;;
63007;SDS011;49266;47.552;19.078;2022-11-20T16:27:39;55.88;;;26.80;;
63007;SDS011;49266;47.552;19.078;2022-11-20T16:32:19;58.95;;;28.75;;
63007;SDS011;49266;47.552;19.078;2022-11-20T16:36:59;58.85;;;29.15;;
63007;SDS011;49266;47.552;19.078;2022-11-20T16:41:39;53.38;;;26.20;;
63007;SDS011;49266;47.552;19.078;2022-11-20T16:46:21;63.00;;;27.98;;
63007;SDS011;49266;47.552;19.078;2022-11-20T16:51:01;56.05;;;27.77;;
63007;SDS011;49266;47.552;19.078;2022-11-20T16:55:41;68.30;;;33.00;;
63007;SDS011;49266;47.552;19.078;2022-11-20T17:00:21;61.88;;;30.17;;
63007;SDS011;49266;47.552;19.078;2022-11-20T17:05:02;60.83;;;28.50;;
63007;SDS011;49266;47.552;19.078;2022-11-20T17:09:42;56.60;;;28.38;;
63007;SDS011;49266;47.552;19.078;2022-11-20T17:14:22;60.50;;;29.58;;
63007;SDS011;49266;47.552;19.078;2022-11-20T17:19:03;61.03;;;29.40;;
63007;SDS011;49266;47.552;19.078;2022-11-20T17:23:44;62.15;;;30.27;;
63007;SDS011;49266;47.552;19.078;2022-11-20T17:28:25;68.95;;;30.55;;
63007;SDS011;49266;47.552;19.078;2022-11-20T17:33:05;61.40;;;29.20;;
63007;SDS011;49266;47.552;19.078;2022-11-20T17:37:45;61.63;;;28.83;;
63007;SDS011;49266;47.552;19.078;2022-11-20T17:42:25;60.95;;;29.55;;
63007;SDS011;49266;47.552;19.078;2022-11-20T17:47:05;61.95;;;30.23;;
63007;SDS011;49266;47.552;19.078;2022-11-20T17:51:45;57.00;;;28.65;;
63007;SDS011;49266;47.552;19.078;2022-11-20T17:56:29;57.22;;;29.25;;
63007;SDS011;49266;47.552;19.078;2022-11-20T18:01:28;60.97;;;29.75;;
63007;SDS011;49266;47.552;19.078;2022-11-20T18:06:12;65.18;;;30.08;;
63007;SDS011;49266;47.552;19.078;2022-11-20T18:10:52;62.42;;;30.25;;
63007;SDS011;49266;47.552;19.078;2022-11-20T18:15:32;58.15;;;28.83;;
63007;SDS011;49266;47.552;19.078;2022-11-20T18:20:12;67.10;;;30.88;;
63007;SDS011;49266;47.552;19.078;2022-11-20T18:24:52;62.40;;;30.83;;
63007;SDS011;49266;47.552;19.078;2022-11-20T18:29:33;62.33;;;30.63;;
63007;SDS011;49266;47.552;19.078;2022-11-20T18:34:14;62.72;;;30.20;;
63007;SDS011;49266;47.552;19.078;2022-11-20T18:38:55;60.10;;;29.30;;
63007;SDS011;49266;47.552;19.078;2022-11-20T18:43:35;63.35;;;29.92;;
63007;SDS011;49266;47.552;19.078;2022-11-20T18:48:34;64.03;;;30.13;;
63007;SDS011;49266;47.552;19.078;2022-11-20T18:53:15;67.20;;;30.42;;
63007;SDS011;49266;47.552;19.078;2022-11-20T18:57:55;68.28;;;31.55;;
63007;SDS011;49266;47.552;19.078;2022-11-20T19:02:35;74.38;;;33.60;;
63007;SDS011;49266;47.552;19.078;2022-11-20T19:07:16;77.07;;;35.97;;
63007;SDS011;49266;47.552;19.078;2022-11-20T19:11:56;75.63;;;36.28;;
63007;SDS011;49266;47.552;19.078;2022-11-20T19:16:37;82.35;;;38.28;;
63007;SDS011;49266;47.552;19.078;2022-11-20T19:21:21;78.90;;;37.45;;
63007;SDS011;49266;47.552;19.078;2022-11-20T19:26:01;80.00;;;36.92;;
63007;SDS011;49266;47.552;19.078;2022-11-20T19:30:42;76.13;;;35.40;;
63007;SDS011;49266;47.552;19.078;2022-11-20T19:35:23;84.00;;;39.30;;
63007;SDS011;49266;47.552;19.078;2022-11-20T19:40:03;79.05;;;37.20;;
63007;SDS011;49266;47.552;19.078;2022-11-20T19:44:44;74.47;;;35.60;;
63007;SDS011;49266;47.552;19.078;2022-11-20T19:49:24;78.30;;;36.75;;
63007;SDS011;49266;47.552;19.078;2022-11-20T19:54:05;76.07;;;34.92;;
63007;SDS011;49266;47.552;19.078;2022-11-20T19:58:45;78.47;;;35.42;;
63007;SDS011;49266;47.552;19.078;2022-11-20T20:03:25;71.20;;;34.10;;
63007;SDS011;49266;47.552;19.078;2022-11-20T20:08:05;79.63;;;36.63;;
63007;SDS011;49266;47.552;19.078;2022-11-20T20:12:45;81.05;;;37.10;;
63007;SDS011;49266;47.552;19.078;2022-11-20T20:17:26;83.00;;;38.40;;
63007;SDS011;49266;47.552;19.078;2022-11-20T20:22:06;87.28;;;38.33;;
63007;SDS011;49266;47.552;19.078;2022-11-20T20:26:46;95.80;;;43.72;;
63007;SDS011;49266;47.552;19.078;2022-11-20T20:31:27;97.75;;;46.15;;
63007;SDS011;49266;47.552;19.078;2022-11-20T20:36:08;104.78;;;47.97;;
63007;SDS011;49266;47.552;19.078;2022-11-20T20:40:49;100.10;;;44.83;;
63007;SDS011;49266;47.552;19.078;2022-11-20T20:45:29;102.53;;;47.95;;
63007;SDS011;49266;47.552;19.078;2022-11-20T20:50:10;95.18;;;44.72;;
63007;SDS011;49266;47.552;19.078;2022-11-20T20:54:50;97.80;;;45.17;;
63007;SDS011;49266;47.552;19.078;2022-11-20T20:59:30;102.47;;;46.83;;
63007;SDS011;49266;47.552;19.078;2022-11-20T21:04:11;96.05;;;44.53;;
63007;SDS011;49266;47.552;19.078;2022-11-20T21:08:52;80.43;;;38.47;;
63007;SDS011;49266;47.552;19.078;2022-11-20T21:13:32;76.07;;;35.35;;
63007;SDS011;49266;47.552;19.078;2022-11-20T21:18:14;64.75;;;31.90;;
63007;SDS011;49266;47.552;19.078;2022-11-20T21:22:55;70.32;;;32.47;;
63007;SDS011;49266;47.552;19.078;2022-11-20T21:27:35;70.53;;;32.78;;
63007;SDS011;49266;47.552;19.078;2022-11-20T21:32:15;68.90;;;32.15;;
63007;SDS011;49266;47.552;19.078;2022-11-20T21:36:55;66.53;;;31.65;;
63007;SDS011;49266;47.552;19.078;2022-11-20T21:41:36;67.28;;;30.05;;
63007;SDS011;49266;47.552;19.078;2022-11-20T21:46:16;70.40;;;32.60;;
63007;SDS011;49266;47.552;19.078;2022-11-20T21:51:00;71.25;;;32.67;;
63007;SDS011;49266;47.552;19.078;2022-11-20T21:55:40;69.10;;;31.95;;
63007;SDS011;49266;47.552;19.078;2022-11-20T22:00:20;71.82;;;31.95;;
63007;SDS011;49266;47.552;19.078;2022-11-20T22:05:00;81.97;;;36.42;;
63007;SDS011;49266;47.552;19.078;2022-11-20T22:09:40;94.53;;;42.05;;
63007;SDS011;49266;47.552;19.078;2022-11-20T22:14:21;87.18;;;39.63;;
63007;SDS011;49266;47.552;19.078;2022-11-20T22:19:01;86.32;;;40.17;;
63007;SDS011;49266;47.552;19.078;2022-11-20T22:23:42;78.53;;;38.08;;
63007;SDS011;49266;47.552;19.078;2022-11-20T22:28:22;79.25;;;39.53;;
63007;SDS011;49266;47.552;19.078;2022-11-20T22:33:02;96.50;;;44.45;;
63007;SDS011;49266;47.552;19.078;2022-11-20T22:37:42;94.95;;;43.20;;
63007;SDS011;49266;47.552;19.078;2022-11-20T22:42:22;87.32;;;43.65;;
63007;SDS011;49266;47.552;19.078;2022-11-20T22:47:03;88.95;;;42.58;;
63007;SDS011;49266;47.552;19.078;2022-11-20T22:51:43;88.45;;;42.85;;
63007;SDS011;49266;47.552;19.078;2022-11-20T22:56:23;85.57;;;42.45;;
63007;SDS011;49266;47.552;19.078;2022-11-20T23:05:47;85.07;;;41.03;;
63007;SDS011;49266;47.552;19.078;2022-11-20T23:10:27;87.93;;;42.65;;
63007;SDS011;49266;47.552;19.078;2022-11-20T23:15:07;94.75;;;43.25;;
63007;SDS011;49266;47.552;19.078;2022-11-20T23:19:47;99.82;;;43.90;;
63007;SDS011;49266;47.552;19.078;2022-11-20T23:24:28;98.18;;;43.17;;
63007;SDS011;49266;47.552;19.078;2022-11-20T23:29:08;94.03;;;42.53;;
63007;SDS011;49266;47.552;19.078;2022-11-20T23:33:48;86.97;;;41.03;;
63007;SDS011;49266;47.552;19.078;2022-11-20T23:38:29;95.40;;;42.80;;
63007;SDS011;49266;47.552;19.078;2022-11-20T23:43:09;84.43;;;41.08;;
63007;SDS011;49266;47.552;19.078;2022-11-20T23:47:55;93.00;;;41.05;;
63007;SDS011;49266;47.552;19.078;2022-11-20T23:52:35;84.13;;;39.90;;
63007;SDS011;49266;47.552;19.078;2022-11-20T23:57:15;89.45;;;41.63;;
